Chandlers Valley, PA (16312)

6:54 PM EDT on August 01, 2014 (GMT -0400)
Brokenstraw Airport (KPAPITTS30) Elev 1235 ft | 41.83 °N, 79.36 °W | Change Station

Current weather conditions updated 8 seconds ago

Clear
Clear
74.9 °F
Feels Like 76 °F
N
0.0
Wind Variable Wind from WSW
Gusts 3.0 mph

Tomorrow is forecast to be Cooler than today. Showers and thunderstorms late.

Today
High -- | Low -- °F
--% Chance of Precip.
Yesterday
High -- | Low -- °F
Precip. -- in
6:10 AM 8:35 PM
Waxing Crescent, 30% visible
Pressure 30.14 in
Visibility 10.0 miles
Clouds Clear
Heat Index 76 °F
Dew Point 68 °F
Humidity 79%
Rainfall 0.00 in
Snow Depth Not available.
UV 2 out of 12
Pollen 7.80 out of 12
Air Quality Not available.
Flu Activity Not available.
METAR KJHW 012235Z AUTO 00000KT 10SM CLR 24/14 A3014 RMK AO1

More Conditions Fewer Conditions

Pressure 30.14 in
Visibility 10.0 miles
Clouds Clear
Heat Index 76 °F
Dew Point 68 °F
Humidity 79%
Rainfall 0.00 in
Snow Depth Not available.
UV 2 out of 12
Pollen 7.80 out of 12
Air Quality Not available.
Flu Activity Not available.
METAR KJHW 012235Z AUTO 00000KT 10SM CLR 24/14 A3014 RMK AO1

More Conditions Fewer Conditions

10-Day Weather Forecast

Almanac

Astronomy

Aug. 01, 2014 Rise Set
Actual Time 6:10 AM EDT 8:35 PM EDT
Civil Twilight 5:39 AM EDT 9:07 PM EDT
Nautical Twilight 5:00 AM EDT 9:45 PM EDT
Astronomical Twilight 4:16 AM EDT 10:29 PM EDT
Moon 11:39 AM EDT 11:12 PM EDT
Length of Visible Light 15h 27m
Length of Day
14h 24m
Tomorrow will be 2m 10s shorter.
Waxing Crescent, 30% of the Moon is Illuminated
Today
Waxing Crescent
Aug 3
First Quarter
Aug 10
Full
Aug 17
Last Quarter
Aug 25
New

Today's Extremes

State Highs State Lows

Community

WunderPhotos

Upload Photos

1,739,736 photos uploaded!

Nearby

Snow Depth

Station Depth Elevation
No new snow has been reported.

Earthquake Activity

City Distance Mag. Time & Date
No recent earthquake activity has been reported nearby.
Minimum magnitude displayed is 2.5.

Coastal Water Temperatures

Place Temperature
No Stations Reporting

Nearby Weather Stations

Station Location Temp. Heat Index Dew Point Humidity Wind Precip. Elev Updated Type
Brokenstraw Airport, Pittsfield, PA 74.9 °F 76 °F 68 °F 79% WSW  at  0.0 mph 0.00 in / hr 1235 ft 6:54 PM EDT Rapid Fire
East Lakewood Weather, Lakewood, NY 79.0 °F 81 °F 64 °F 59% NNW  at  1.0 mph 0.00 in / hr 1325 ft 6:54 PM EDT Rapid Fire
Parts Plus/Dan Backus Memorial Weather S, Jamestown, NY 79.8 °F 81 °F 60 °F 50% North  at  2.0 mph 0.00 in / hr 1250 ft 6:54 PM EDT Rapid Fire
Dutch Hollow Rd by VFW, Bemus Point, NY 73.8 °F 75 °F 64 °F 72% East  at  2.0 mph 0.00 in / hr 1772 ft 6:54 PM EDT Normal
Packard Gatehouse Chautauqua, Chautauqua, NY 76.6 °F 78 °F 62 °F 60% North  at  - - / hr 1388 ft 6:41 PM EDT Normal
Sea Lion Channel Lake Chautauqua (MADIS), Mayville, NY 75.4 °F 77 °F 65 °F 71% WNW  at  0.0 mph 0.00 in / hr 1310 ft 6:52 PM EDT Normal

Show More Stations Show Fewer Stations